createdAt,value
2022-08-05T00:01:27.981Z,98336.16
2022-08-05T00:06:33.377Z,98247.09
2022-08-05T00:11:49.649Z,98204.47
2022-08-05T00:16:58.782Z,98161.78
2022-08-05T00:22:05.717Z,98178.06
2022-08-05T00:27:16.525Z,98194.31
2022-08-05T00:32:19.706Z,98194.13
2022-08-05T00:37:22.616Z,98196.63
2022-08-05T00:42:34.666Z,98188.00
2022-08-05T00:47:57.337Z,98135.25
2022-08-05T00:53:00.874Z,98113.78
2022-08-05T00:58:05.848Z,98068.28
2022-08-05T01:03:22.538Z,98104.59
2022-08-05T01:08:30.267Z,98163.06
2022-08-05T01:13:59.455Z,98180.78
2022-08-05T01:19:14.300Z,98145.50
2022-08-05T01:24:36.962Z,98150.09
2022-08-05T01:29:47.562Z,98162.19
2022-08-05T01:34:55.655Z,98133.19
2022-08-05T01:40:00.654Z,98127.97
2022-08-05T01:45:08.576Z,98101.66
2022-08-05T01:50:16.044Z,98077.25
2022-08-05T01:55:23.693Z,98077.66
2022-08-05T02:00:29.998Z,98062.84
2022-08-05T02:05:35.985Z,98073.50
2022-08-05T02:10:44.126Z,98061.59
2022-08-05T02:15:54.301Z,98073.31
2022-08-05T02:21:00.982Z,98072.88
2022-08-05T02:26:07.264Z,98070.78
2022-08-05T02:31:21.115Z,98093.94
2022-08-05T02:36:27.541Z,98091.44
2022-08-05T02:41:43.133Z,98103.97
2022-08-05T02:47:00.725Z,98144.25
2022-08-05T02:52:04.986Z,98213.31
2022-08-05T02:58:20.177Z,98229.56
2022-08-05T03:02:38.222Z,98288.31
2022-08-05T03:08:07.118Z,98282.59
2022-08-05T03:13:16.826Z,98293.63
2022-08-05T03:18:24.674Z,98277.03
2022-08-05T03:23:33.628Z,98274.63
2022-08-05T03:28:38.419Z,98287.50
2022-08-05T03:33:52.838Z,98287.25
2022-08-05T03:38:56.246Z,98310.34
2022-08-05T03:44:10.199Z,98332.59
2022-08-05T03:49:16.145Z,98315.91
2022-08-05T03:55:50.981Z,98289.22
2022-08-05T03:59:55.442Z,98320.38
2022-08-05T04:05:01.073Z,98312.78
2022-08-05T04:10:04.606Z,98242.16
2022-08-05T04:15:08.900Z,98222.97
2022-08-05T04:20:22.143Z,98187.56
2022-08-05T04:25:56.966Z,98212.06
2022-08-05T04:30:49.541Z,98242.44
2022-08-05T04:36:10.698Z,98226.22
2022-08-05T04:41:16.895Z,98262.47
2022-08-05T04:46:28.242Z,98288.31
2022-08-05T04:51:32.923Z,98288.06
2022-08-05T04:56:37.679Z,98272.09
2022-08-05T05:02:07.230Z,98268.66
2022-08-05T05:07:04.939Z,98221.25
2022-08-05T05:12:12.315Z,98220.50
2022-08-05T05:17:18.711Z,98214.69
2022-08-05T05:22:27.771Z,98220.31
2022-08-05T05:27:45.741Z,98263.66
2022-08-05T05:32:51.812Z,98289.72
2022-08-05T05:37:59.975Z,98278.72
2022-08-05T05:43:04.616Z,98264.38
2022-08-05T05:48:11.492Z,98270.88
2022-08-05T05:53:25.569Z,98253.16
2022-08-05T05:58:31.731Z,98195.88
2022-08-05T06:03:53.898Z,98232.84
2022-08-05T06:08:59.173Z,98222.81
2022-08-05T06:14:02.791Z,98193.09
2022-08-05T06:19:07.045Z,98223.25
2022-08-05T06:24:12.836Z,98249.63
2022-08-05T06:29:25.009Z,98267.22
2022-08-05T06:34:40.915Z,98265.13
2022-08-05T06:39:45.868Z,98238.41
2022-08-05T06:44:49.163Z,98222.97
2022-08-05T06:50:01.128Z,98247.91
2022-08-05T06:55:07.186Z,98274.66
2022-08-05T07:00:11.327Z,98276.94
2022-08-05T07:05:18.838Z,98279.50
2022-08-05T07:10:32.265Z,98294.41
2022-08-05T07:16:00.867Z,98295.16
2022-08-05T07:21:07.609Z,98278.94
2022-08-05T07:26:13.277Z,98275.00
2022-08-05T07:31:17.328Z,98293.25
2022-08-05T07:36:21.451Z,98303.75
2022-08-05T07:42:13.074Z,98313.56
2022-08-05T07:46:50.599Z,98327.28
2022-08-05T07:51:55.305Z,98331.44
2022-08-05T07:57:22.694Z,98334.16
2022-08-05T08:02:31.040Z,98353.59
2022-08-05T08:07:59.953Z,98356.69
2022-08-05T08:13:05.110Z,98361.44
2022-08-05T08:18:13.718Z,98367.63
2022-08-05T08:24:01.006Z,98373.09
2022-08-05T08:28:55.280Z,98368.13
2022-08-05T08:34:02.628Z,98372.69
2022-08-05T08:39:05.586Z,98376.56
2022-08-05T08:45:21.153Z,98376.50
2022-08-05T08:50:07.820Z,98368.09
2022-08-05T08:55:13.484Z,98356.19
2022-08-05T09:00:23.733Z,98354.59
2022-08-05T09:05:38.447Z,98361.50
2022-08-05T09:10:52.824Z,98363.31
2022-08-05T09:15:57.054Z,98369.81
2022-08-05T09:20:59.853Z,98374.13
2022-08-05T09:26:15.945Z,98390.97
2022-08-05T09:32:40.192Z,98390.75
2022-08-05T09:36:56.412Z,98391.72
2022-08-05T09:42:04.537Z,98373.78
2022-08-05T09:47:15.398Z,98355.13
2022-08-05T09:52:25.537Z,98360.03
2022-08-05T09:57:39.695Z,98371.88
2022-08-05T10:02:49.977Z,98389.97
2022-08-05T10:08:35.463Z,98400.28
2022-08-05T10:13:31.623Z,98398.22
2022-08-05T10:18:48.433Z,98391.81
2022-08-05T10:24:00.264Z,98401.63
2022-08-05T10:29:03.633Z,98421.28
2022-08-05T10:34:08.357Z,98433.56
2022-08-05T10:39:25.045Z,98444.88
2022-08-05T10:44:46.251Z,98446.81
2022-08-05T10:50:32.088Z,98453.53
2022-08-05T10:55:38.462Z,98462.66
2022-08-05T11:01:03.080Z,98439.59
2022-08-05T11:06:15.151Z,98454.59
2022-08-05T11:11:44.592Z,98465.72
2022-08-05T11:17:56.777Z,98478.88
2022-08-05T11:23:02.179Z,98465.53
2022-08-05T11:28:43.588Z,98480.66
2022-08-05T11:33:55.719Z,98482.09
2022-08-05T11:39:03.086Z,98480.25
2022-08-05T11:44:12.452Z,98478.22
2022-08-05T11:49:24.702Z,98470.50
2022-08-05T11:54:33.877Z,98487.06
2022-08-05T11:59:50.256Z,98491.75
2022-08-05T12:04:59.590Z,98514.63
2022-08-05T12:10:11.570Z,98530.06
2022-08-05T12:15:37.989Z,98540.91
2022-08-05T12:20:41.553Z,98560.88
2022-08-05T12:25:56.670Z,98570.84
2022-08-05T12:31:02.440Z,98577.31
2022-08-05T12:36:08.415Z,98565.19
2022-08-05T12:41:16.154Z,98571.72
2022-08-05T12:46:29.072Z,98581.72
2022-08-05T12:52:14.425Z,98605.00
2022-08-05T12:56:59.462Z,98606.81
2022-08-05T13:02:07.422Z,98618.53
2022-08-05T13:07:23.753Z,98622.97
2022-08-05T13:12:42.661Z,98625.22
2022-08-05T13:17:55.881Z,98648.53
2022-08-05T13:23:02.390Z,98651.66
2022-08-05T13:28:12.830Z,98652.31
2022-08-05T13:34:23.558Z,98658.19
2022-08-05T13:38:42.795Z,98662.56
2022-08-05T13:43:54.955Z,98682.50
2022-08-05T13:49:00.931Z,98687.75
2022-08-05T13:54:11.594Z,98683.25
2022-08-05T13:59:19.657Z,98677.50
2022-08-05T14:04:41.218Z,98683.19
2022-08-05T14:09:46.400Z,98690.13
2022-08-05T14:14:51.376Z,98684.72
2022-08-05T14:20:00.845Z,98693.38
2022-08-05T14:25:21.505Z,98702.09
2022-08-05T14:30:27.720Z,98708.56
2022-08-05T14:35:37.063Z,98700.59
2022-08-05T14:40:54.162Z,98698.00
2022-08-05T14:45:58.344Z,98694.22
2022-08-05T14:51:01.322Z,98685.88
2022-08-05T14:56:06.544Z,98689.97
2022-08-05T15:01:16.006Z,98684.72
2022-08-05T15:06:19.807Z,98695.13
2022-08-05T15:11:52.325Z,98705.56
2022-08-05T15:16:55.394Z,98698.34
2022-08-05T15:22:00.223Z,98708.69
2022-08-05T15:27:03.882Z,98712.94
2022-08-05T15:32:13.846Z,98715.81
2022-08-05T15:38:21.128Z,98723.84
2022-08-05T15:42:56.076Z,98723.63
2022-08-05T15:48:03.391Z,98721.81
2022-08-05T15:53:06.788Z,98707.41
2022-08-05T15:58:16.695Z,98724.69
2022-08-05T16:03:21.120Z,98733.00
2022-08-05T16:13:51.244Z,98727.16
2022-08-05T16:18:55.509Z,98725.22
2022-08-05T16:24:03.294Z,98742.28
2022-08-05T16:29:06.656Z,98741.25
2022-08-05T16:34:12.590Z,98732.19
2022-08-05T16:39:18.577Z,98742.41
2022-08-05T16:44:25.695Z,98741.13
2022-08-05T16:49:30.280Z,98737.38
2022-08-05T16:54:33.315Z,98739.72
2022-08-05T17:00:01.581Z,98751.22
2022-08-05T17:05:00.422Z,98756.31
2022-08-05T17:10:03.696Z,98756.63
2022-08-05T17:15:07.593Z,98759.72
2022-08-05T17:20:14.869Z,98754.47
2022-08-05T17:25:33.487Z,98769.69
2022-08-05T17:30:42.557Z,98772.56
2022-08-05T17:36:07.552Z,98772.75
2022-08-05T17:41:22.927Z,98784.09
2022-08-05T17:46:35.130Z,98785.84
2022-08-05T17:51:40.806Z,98793.63
2022-08-05T17:56:44.714Z,98802.38
2022-08-05T18:01:52.671Z,98806.41
2022-08-05T18:07:01.262Z,98816.78
2022-08-05T18:12:05.559Z,98813.81
2022-08-05T18:18:00.987Z,98820.00
2022-08-05T18:22:36.177Z,98828.69
2022-08-05T18:27:52.081Z,98841.41
2022-08-05T18:33:00.402Z,98839.84
2022-08-05T18:38:05.552Z,98850.31
2022-08-05T18:43:09.160Z,98851.22
2022-08-05T18:48:30.773Z,98862.25
2022-08-05T18:53:42.958Z,98879.72
2022-08-05T18:58:50.835Z,98889.50
2022-08-05T19:03:56.815Z,98901.13
2022-08-05T19:09:01.447Z,98917.38
2022-08-05T19:14:19.990Z,98926.97
2022-08-05T19:19:27.710Z,98938.09
2022-08-05T19:24:35.204Z,98944.56
2022-08-05T19:29:39.670Z,98954.47
2022-08-05T19:34:54.924Z,98958.75
2022-08-05T19:40:00.861Z,98969.00
2022-08-05T19:45:06.113Z,98976.16
2022-08-05T19:50:11.952Z,98982.81
2022-08-05T19:56:14.238Z,98988.88
2022-08-05T20:00:39.483Z,98998.88
2022-08-05T20:05:50.386Z,98999.59
2022-08-05T20:10:56.732Z,99013.44
2022-08-05T20:16:00.117Z,99010.59
2022-08-05T20:21:04.791Z,99013.47
2022-08-05T20:26:15.924Z,99019.69
2022-08-05T20:31:21.547Z,99024.88
2022-08-05T20:36:25.979Z,99025.66
2022-08-05T20:41:43.138Z,99031.00
2022-08-05T20:46:47.855Z,99035.19
2022-08-05T20:51:53.387Z,99043.91
2022-08-05T20:56:58.614Z,99043.81
2022-08-05T21:02:01.489Z,99058.19
2022-08-05T21:07:08.982Z,99064.16
2022-08-05T21:12:13.178Z,99069.28
2022-08-05T21:17:19.911Z,99076.22
2022-08-05T21:22:25.386Z,99077.16
2022-08-05T21:27:38.814Z,99083.31
2022-08-05T21:32:42.037Z,99097.78
2022-08-05T21:37:52.650Z,99094.03
2022-08-05T21:42:59.024Z,99104.44
2022-08-05T21:48:02.301Z,99103.78
2022-08-05T21:53:16.780Z,99104.09
2022-08-05T21:58:24.800Z,99098.81
2022-08-05T22:03:48.462Z,99099.53
2022-08-05T22:08:55.742Z,99100.31
2022-08-05T22:14:32.517Z,99105.41
2022-08-05T22:20:01.700Z,99115.47
2022-08-05T22:25:04.312Z,99110.22
2022-08-05T22:30:15.402Z,99120.84
2022-08-05T22:35:20.032Z,99128.25
2022-08-05T22:40:23.445Z,99133.78
2022-08-05T22:45:27.748Z,99139.72
2022-08-05T22:50:33.905Z,99132.66
2022-08-05T22:55:57.053Z,99137.19
2022-08-05T23:01:01.606Z,99137.03
2022-08-05T23:06:04.617Z,99140.00
2022-08-05T23:11:09.186Z,99148.63
2022-08-05T23:16:13.606Z,99157.81
2022-08-05T23:21:42.821Z,99160.63
2022-08-05T23:26:51.002Z,99158.75
2022-08-05T23:31:55.371Z,99171.25
2022-08-05T23:36:59.436Z,99175.91
2022-08-05T23:42:03.613Z,99179.16
2022-08-05T23:47:15.133Z,99183.81
2022-08-05T23:52:29.260Z,99194.06
2022-08-05T23:57:34.398Z,99202.38
